Aérodrome :
LOGIN :

S'inscrire | Disclaimer

   EN    FR    IT 

 










Légende :    VFR   VFR Marginal   IFR   IFR Intensif   IFR Très Intensif
Visi : 
Plafond : 
>= 8 km
>= 3000ft
5 à 8 km
1000 à 3000 ft
1500m à 5 km
500 à 1000 ft
800 à 1500m
200 à 500 ft
< 800m
< 200 ft
Symboles :   Orages  Brouillard  Fortes neiges  Fortes précipitations  Vent > 20 kt
SIGMETs :   Divers  Orages  Givrage  Turbulence  Onde Orograph.  Cendres Volcan.







- Altitude de l'aérodrome : 13 ft
- Code IATA : GOA


LIMJ - Genoa Cristoforo Colombo

DERNIER METAR :
  • 222350Z VRB02KT 8000 -RA FEW020 SCT025 BKN045 14/12 Q1004

METARs EXPIRÉS :
  • 222320Z 33003KT 8000 -RA FEW020 SCT025 BKN045 14/12 Q1005
  • 222250Z 32003KT 8000 -RA FEW020 SCT025 BKN045 14/13 Q1005
  • 222220Z 36005KT 310V060 8000 -RA FEW020 SCT025 BKN045 14/12 Q1005
  • 222150Z 02005KT 300V060 8000 -RA FEW020 SCT030 BKN045 15/12 Q1006
  • 222120Z 02003KT 290V080 8000 -RA FEW020 SCT030 BKN045 15/13 Q1005

TAF TAF LIMJ
Valide du 23 à 00h jusqu'au 24 à 00h UTC


222300Z 2300/2324 01013KT 8000 RA BKN020 BKN050
Pas de NOTAMs connus pour ce terrain.



MET'MAP, la Météo Aéronautique d'un coup d'oeil ! - Copyright ORBIFLY Décembre 2007 - Disclaimer

ORBIFLY MET'MAP TEAM :

Programmation & Développement : Alexandra Zaïnal
Conception & Développement : Baudouin d'Aumeries
Co-Programmation & Développement : Marc-Olivier Méhu
Soutien technique & logistique : Manuel Goepfert

Contact : metmap@orbifly.com




SOURCES & CREDITS :

   NOAA